Time;durP1;ratioP1;P1;durP2;ratioP2;P2;SDS_P1;SDS_P2;PMS_P1;PMS_P2;Temp;Humidity;BMP_temperature;BMP_pressure;BME280_temperature;BME280_humidity;BME280_pressure;Samples;Min_cycle;Max_cycle;Signal;HPM_P1;HPM_P2
2023/12/06 00:01:57;;;;;;;154.70;76.10;;;;;;;;;;106860;1253;60009;-79
2023/12/06 00:04:24;;;;;;;154.90;72.90;;;;;;;;;;106813;1253;60001;-79
2023/12/06 00:06:50;;;;;;;177.40;79.00;;;;;;;;;;106880;1253;59061;-79
2023/12/06 00:09:17;;;;;;;156.40;70.90;;;;;;;;;;106831;1254;58670;-80
2023/12/06 00:11:43;;;;;;;139.50;66.70;;;;;;;;;;106867;1253;59515;-79
2023/12/06 00:14:10;;;;;;;134.20;67.50;;;;;;;;;;106820;1256;59131;-79
2023/12/06 00:16:39;;;;;;;141.70;66.80;;;;;;;;;;106833;1253;59024;-78
2023/12/06 00:19:06;;;;;;;148.20;67.50;;;;;;;;;;106801;1253;59937;-79
2023/12/06 00:21:33;;;;;;;139.70;63.70;;;;;;;;;;106875;1253;59895;-79
2023/12/06 00:24:00;;;;;;;136.00;61.60;;;;;;;;;;107485;1252;60091;-79
2023/12/06 00:26:26;;;;;;;127.10;59.70;;;;;;;;;;107443;1253;60611;-79
2023/12/06 00:28:53;;;;;;;123.40;59.60;;;;;;;;;;106841;1253;60007;-79
2023/12/06 00:31:20;;;;;;;126.20;59.60;;;;;;;;;;109404;1253;58025;-79
2023/12/06 00:33:46;;;;;;;118.50;53.40;;;;;;;;;;109406;1252;61236;-79
2023/12/06 00:36:12;;;;;;;116.10;51.10;;;;;;;;;;109372;1253;58307;-79
2023/12/06 00:38:39;;;;;;;113.70;53.40;;;;;;;;;;108707;1253;60384;-79
2023/12/06 00:41:06;;;;;;;123.20;53.60;;;;;;;;;;106896;1253;59927;-79
2023/12/06 00:43:32;;;;;;;131.00;56.30;;;;;;;;;;107009;1253;59302;-80
2023/12/06 00:45:59;;;;;;;123.30;56.20;;;;;;;;;;106926;1252;60023;-79
2023/12/06 00:48:25;;;;;;;110.80;52.70;;;;;;;;;;106843;1252;59521;-79
2023/12/06 00:50:52;;;;;;;102.00;51.20;;;;;;;;;;106917;1254;59044;-79
2023/12/06 00:53:18;;;;;;;111.20;52.70;;;;;;;;;;108630;1252;60072;-79
2023/12/06 00:55:45;;;;;;;116.40;51.50;;;;;;;;;;109361;1253;58060;-79
2023/12/06 00:58:11;;;;;;;121.80;55.10;;;;;;;;;;109385;1252;58392;-79
2023/12/06 01:00:38;;;;;;;126.70;55.50;;;;;;;;;;109392;1252;58506;-79
2023/12/06 01:03:04;;;;;;;111.20;51.90;;;;;;;;;;109332;1252;58876;-79
2023/12/06 01:05:31;;;;;;;116.40;52.00;;;;;;;;;;109451;1252;58147;-79
2023/12/06 01:07:57;;;;;;;113.40;54.00;;;;;;;;;;109449;1252;58107;-79
2023/12/06 01:10:24;;;;;;;115.80;54.00;;;;;;;;;;109448;1252;58100;-79
2023/12/06 01:12:50;;;;;;;114.30;57.20;;;;;;;;;;109436;1251;58411;-79
2023/12/06 01:15:17;;;;;;;125.10;53.80;;;;;;;;;;109438;1252;58044;-79
2023/12/06 01:17:43;;;;;;;123.70;60.90;;;;;;;;;;109448;1252;58305;-79
2023/12/06 01:20:10;;;;;;;123.70;58.20;;;;;;;;;;109474;1252;58246;-79
2023/12/06 01:22:36;;;;;;;130.30;62.70;;;;;;;;;;109435;1252;58396;-79
2023/12/06 01:25:03;;;;;;;130.30;62.40;;;;;;;;;;109466;1252;58060;-79
2023/12/06 01:27:29;;;;;;;136.80;62.60;;;;;;;;;;109482;1251;58062;-79
2023/12/06 01:29:56;;;;;;;145.40;65.70;;;;;;;;;;109432;1252;58319;-79
2023/12/06 01:32:22;;;;;;;150.80;66.90;;;;;;;;;;109410;1251;57955;-79
2023/12/06 01:34:48;;;;;;;154.10;70.90;;;;;;;;;;109442;1252;58223;-79
2023/12/06 01:37:15;;;;;;;142.40;65.20;;;;;;;;;;109446;1252;58313;-79
2023/12/06 01:39:41;;;;;;;141.70;66.90;;;;;;;;;;109443;1253;58141;-79
2023/12/06 01:42:08;;;;;;;141.20;67.70;;;;;;;;;;109396;1252;58472;-79
2023/12/06 01:44:34;;;;;;;142.50;67.90;;;;;;;;;;109450;1253;58208;-79
2023/12/06 01:47:02;;;;;;;134.50;63.40;;;;;;;;;;109132;1252;58096;-79
2023/12/06 01:49:29;;;;;;;128.80;60.20;;;;;;;;;;106967;1253;60053;-79
2023/12/06 01:51:56;;;;;;;127.30;58.60;;;;;;;;;;107169;1251;60131;-79
2023/12/06 01:54:22;;;;;;;125.70;57.70;;;;;;;;;;107206;1251;59124;-79
2023/12/06 01:56:49;;;;;;;113.30;52.90;;;;;;;;;;107118;1251;60208;-79
2023/12/06 01:59:15;;;;;;;125.50;58.10;;;;;;;;;;107131;1251;59036;-79
2023/12/06 02:01:42;;;;;;;111.00;53.30;;;;;;;;;;107175;1251;60145;-79
2023/12/06 02:04:08;;;;;;;113.00;53.70;;;;;;;;;;107133;1251;58712;-79
2023/12/06 02:06:35;;;;;;;121.80;53.80;;;;;;;;;;107079;1251;60032;-79
2023/12/06 02:09:01;;;;;;;115.10;50.10;;;;;;;;;;107121;1251;58662;-79
2023/12/06 02:11:27;;;;;;;110.90;53.60;;;;;;;;;;106970;1251;60070;-79
2023/12/06 02:13:54;;;;;;;112.50;51.30;;;;;;;;;;107161;1251;59033;-79
2023/12/06 02:16:21;;;;;;;110.00;51.80;;;;;;;;;;106990;1251;59088;-79
2023/12/06 02:18:47;;;;;;;99.60;50.20;;;;;;;;;;107102;1251;60911;-79
2023/12/06 02:21:13;;;;;;;106.80;49.80;;;;;;;;;;107202;1251;59061;-79
2023/12/06 02:23:40;;;;;;;98.50;46.20;;;;;;;;;;108061;1251;59103;-77
2023/12/06 02:26:06;;;;;;;106.80;50.40;;;;;;;;;;107212;1251;58816;-78
2023/12/06 02:28:33;;;;;;;94.30;43.50;;;;;;;;;;107841;1251;60133;-76
2023/12/06 02:30:59;;;;;;;110.00;50.90;;;;;;;;;;107186;1251;60104;-77
2023/12/06 02:33:26;;;;;;;113.30;51.90;;;;;;;;;;107297;1252;59018;-75
2023/12/06 02:35:53;;;;;;;121.40;54.10;;;;;;;;;;107210;1251;60057;-76
2023/12/06 02:38:20;;;;;;;111.50;56.10;;;;;;;;;;107173;1251;59994;-78
2023/12/06 02:40:47;;;;;;;137.00;59.50;;;;;;;;;;107267;1251;61225;-76
2023/12/06 02:43:14;;;;;;;127.50;59.30;;;;;;;;;;107320;1251;60016;-76
2023/12/06 02:45:41;;;;;;;121.30;57.00;;;;;;;;;;107666;1251;60839;-78
2023/12/06 02:48:07;;;;;;;122.90;56.80;;;;;;;;;;109478;1251;62224;-76
2023/12/06 02:50:34;;;;;;;130.40;63.70;;;;;;;;;;109478;1251;58357;-76
2023/12/06 02:53:00;;;;;;;139.50;65.20;;;;;;;;;;109459;1251;60373;-76
2023/12/06 02:55:27;;;;;;;127.50;65.90;;;;;;;;;;109531;1251;58287;-75
2023/12/06 02:57:53;;;;;;;140.80;67.90;;;;;;;;;;109419;1251;58110;-73
2023/12/06 03:00:20;;;;;;;130.90;63.90;;;;;;;;;;108900;1251;59718;-76
2023/12/06 03:02:47;;;;;;;126.80;57.60;;;;;;;;;;107336;1251;60114;-77
2023/12/06 03:05:13;;;;;;;118.60;58.00;;;;;;;;;;107147;1251;59142;-78
2023/12/06 03:07:40;;;;;;;129.40;61.10;;;;;;;;;;107139;1251;60246;-78
2023/12/06 03:10:06;;;;;;;138.70;64.80;;;;;;;;;;107201;1251;60136;-75
2023/12/06 03:12:33;;;;;;;131.50;64.30;;;;;;;;;;107139;1251;61152;-76
2023/12/06 03:14:59;;;;;;;135.10;61.50;;;;;;;;;;107185;1252;58855;-76
2023/12/06 03:17:26;;;;;;;123.70;58.60;;;;;;;;;;107052;1251;59025;-75
2023/12/06 03:19:52;;;;;;;130.80;62.60;;;;;;;;;;107149;1251;58959;-76
2023/12/06 03:22:19;;;;;;;127.20;58.20;;;;;;;;;;107258;1252;58833;-76
2023/12/06 03:24:45;;;;;;;122.00;58.70;;;;;;;;;;107202;1253;59025;-76
2023/12/06 03:27:12;;;;;;;119.70;58.30;;;;;;;;;;108366;1251;58972;-76
2023/12/06 03:29:38;;;;;;;126.60;58.60;;;;;;;;;;109461;1251;60903;-76
2023/12/06 03:32:05;;;;;;;120.40;59.10;;;;;;;;;;109501;1251;58007;-76
2023/12/06 03:34:31;;;;;;;120.30;53.60;;;;;;;;;;108059;1251;58993;-75
2023/12/06 03:36:58;;;;;;;111.10;53.30;;;;;;;;;;107040;1251;60034;-77
2023/12/06 03:39:26;;;;;;;122.80;57.70;;;;;;;;;;107103;1251;60201;-75
2023/12/06 03:41:52;;;;;;;108.00;53.00;;;;;;;;;;109501;1251;60728;-76
2023/12/06 03:44:18;;;;;;;118.20;54.10;;;;;;;;;;109479;1251;58071;-76
2023/12/06 03:46:45;;;;;;;102.10;46.90;;;;;;;;;;109526;1251;58167;-76
2023/12/06 03:49:12;;;;;;;105.80;52.40;;;;;;;;;;109389;1255;58222;-77
2023/12/06 03:51:39;;;;;;;114.20;53.30;;;;;;;;;;109491;1251;59401;-77
2023/12/06 03:54:05;;;;;;;115.60;52.90;;;;;;;;;;109486;1251;60364;-79
2023/12/06 03:56:32;;;;;;;111.80;56.10;;;;;;;;;;109549;1251;58225;-78
2023/12/06 03:58:58;;;;;;;104.40;50.10;;;;;;;;;;109539;1251;58246;-83
2023/12/06 04:01:25;;;;;;;94.50;48.80;;;;;;;;;;109222;1251;58084;-84
2023/12/06 04:03:51;;;;;;;104.80;50.50;;;;;;;;;;107279;1251;59067;-77
2023/12/06 04:06:18;;;;;;;101.10;48.90;;;;;;;;;;107154;1251;58913;-80
2023/12/06 04:08:44;;;;;;;112.20;51.50;;;;;;;;;;107203;1251;58421;-82
2023/12/06 04:11:11;;;;;;;106.90;50.10;;;;;;;;;;107249;1251;58433;-81
2023/12/06 04:13:37;;;;;;;95.00;47.10;;;;;;;;;;108144;1251;58489;-79
2023/12/06 04:16:04;;;;;;;110.70;49.80;;;;;;;;;;109128;1251;58363;-82
2023/12/06 04:18:30;;;;;;;93.60;48.00;;;;;;;;;;109457;1251;59812;-81
2023/12/06 04:20:57;;;;;;;107.10;53.20;;;;;;;;;;109479;1251;58228;-81
2023/12/06 04:23:23;;;;;;;107.20;48.00;;;;;;;;;;109476;1251;58369;-81
2023/12/06 04:25:50;;;;;;;105.90;51.70;;;;;;;;;;109505;1251;58153;-79
2023/12/06 04:28:16;;;;;;;112.60;56.10;;;;;;;;;;109467;1252;58350;-82
2023/12/06 04:30:43;;;;;;;94.60;48.00;;;;;;;;;;109467;1251;58350;-76
2023/12/06 04:33:09;;;;;;;108.30;50.60;;;;;;;;;;109472;1251;58256;-78
2023/12/06 04:35:36;;;;;;;99.80;50.60;;;;;;;;;;109488;1251;58122;-73
2023/12/06 04:38:02;;;;;;;90.90;45.00;;;;;;;;;;109478;1251;58358;-79
2023/12/06 04:40:29;;;;;;;86.10;45.10;;;;;;;;;;109458;1251;58818;-80
2023/12/06 04:42:55;;;;;;;97.10;48.00;;;;;;;;;;109461;1251;58118;-80
2023/12/06 04:45:22;;;;;;;81.80;40.60;;;;;;;;;;108246;1251;59331;-80
2023/12/06 04:47:49;;;;;;;107.30;46.70;;;;;;;;;;107052;1251;60050;-80
2023/12/06 04:50:15;;;;;;;93.00;49.80;;;;;;;;;;107080;1251;60782;-80
2023/12/06 04:52:42;;;;;;;102.70;54.00;;;;;;;;;;107019;1256;60063;-80
2023/12/06 04:55:09;;;;;;;112.00;54.80;;;;;;;;;;106961;1254;61201;-80
2023/12/06 04:57:35;;;;;;;105.00;45.20;;;;;;;;;;107186;1253;61084;-81
2023/12/06 05:00:04;;;;;;;102.00;45.20;;;;;;;;;;107186;1253;60118;-81
2023/12/06 05:02:31;;;;;;;92.70;41.40;;;;;;;;;;107384;1253;61157;-80
2023/12/06 05:04:57;;;;;;;90.20;44.10;;;;;;;;;;107287;1253;58872;-80
2023/12/06 05:07:24;;;;;;;90.20;50.20;;;;;;;;;;107154;1253;59678;-80
2023/12/06 05:09:50;;;;;;;78.50;41.30;;;;;;;;;;107198;1253;59099;-80
2023/12/06 05:12:17;;;;;;;65.60;30.70;;;;;;;;;;107285;1253;59099;-80
2023/12/06 05:14:43;;;;;;;57.70;31.10;;;;;;;;;;107011;1257;58746;-80
2023/12/06 05:17:11;;;;;;;55.00;27.00;;;;;;;;;;107041;1253;59088;-80
2023/12/06 05:19:37;;;;;;;62.70;34.20;;;;;;;;;;107007;1253;60159;-80
2023/12/06 05:22:04;;;;;;;68.30;36.80;;;;;;;;;;107167;1251;59021;-80
2023/12/06 05:24:30;;;;;;;65.00;33.60;;;;;;;;;;107718;1251;59011;-80
2023/12/06 05:26:57;;;;;;;90.50;48.00;;;;;;;;;;109465;1252;58491;-82
2023/12/06 05:29:23;;;;;;;98.10;54.30;;;;;;;;;;109461;1252;58214;-82
2023/12/06 05:31:50;;;;;;;98.50;45.00;;;;;;;;;;108349;1251;58456;-80
2023/12/06 05:34:16;;;;;;;104.70;45.70;;;;;;;;;;106981;1255;59159;-80
2023/12/06 05:36:43;;;;;;;105.90;52.60;;;;;;;;;;106846;1251;58133;-80
2023/12/06 05:39:10;;;;;;;92.30;49.10;;;;;;;;;;106799;1253;58325;-80
2023/12/06 05:41:36;;;;;;;71.80;37.30;;;;;;;;;;106837;1255;59037;-80
2023/12/06 05:44:05;;;;;;;69.10;35.50;;;;;;;;;;106757;1252;59864;-80
2023/12/06 05:46:31;;;;;;;93.30;45.60;;;;;;;;;;106711;1252;61350;-81
2023/12/06 05:48:58;;;;;;;82.20;46.00;;;;;;;;;;106643;1251;60854;-81
2023/12/06 05:51:24;;;;;;;75.70;35.80;;;;;;;;;;106681;1253;58941;-80
2023/12/06 05:53:51;;;;;;;63.00;33.60;;;;;;;;;;106733;1253;60264;-80
2023/12/06 05:56:17;;;;;;;68.30;32.50;;;;;;;;;;106634;1252;59586;-80
2023/12/06 05:58:44;;;;;;;65.20;32.20;;;;;;;;;;106686;1251;60126;-79
2023/12/06 06:01:11;;;;;;;75.70;37.10;;;;;;;;;;106759;1253;59419;-80
2023/12/06 06:03:37;;;;;;;74.10;36.70;;;;;;;;;;106880;1251;59989;-80
2023/12/06 06:06:07;;;;;;;72.10;35.70;;;;;;;;;;106789;1251;59688;-81
2023/12/06 06:08:34;;;;;;;56.20;29.60;;;;;;;;;;106828;1251;60501;-80
2023/12/06 06:11:01;;;;;;;58.30;29.60;;;;;;;;;;106852;1251;59817;-80
2023/12/06 06:13:29;;;;;;;59.60;31.00;;;;;;;;;;106900;1255;59789;-80
2023/12/06 06:15:56;;;;;;;64.50;30.00;;;;;;;;;;106840;1255;61328;-80
2023/12/06 06:18:22;;;;;;;51.90;30.70;;;;;;;;;;106747;1251;59001;-80
2023/12/06 06:20:49;;;;;;;60.30;30.70;;;;;;;;;;106793;1254;58943;-80
2023/12/06 06:23:15;;;;;;;50.70;27.50;;;;;;;;;;106858;1251;60227;-80
2023/12/06 06:25:42;;;;;;;63.70;29.40;;;;;;;;;;106702;1251;59944;-81
2023/12/06 06:28:08;;;;;;;59.30;27.40;;;;;;;;;;106699;1251;60379;-80
2023/12/06 06:30:35;;;;;;;60.50;31.70;;;;;;;;;;106720;1251;60062;-80
2023/12/06 06:33:01;;;;;;;71.40;35.80;;;;;;;;;;106741;1251;161308;-80
2023/12/06 06:35:28;;;;;;;83.50;38.60;;;;;;;;;;106710;1253;59023;-81
2023/12/06 06:37:56;;;;;;;87.40;42.90;;;;;;;;;;106653;1253;58953;-80
2023/12/06 06:40:22;;;;;;;87.50;41.50;;;;;;;;;;106738;1251;61311;-81
2023/12/06 06:42:49;;;;;;;99.40;45.70;;;;;;;;;;106802;1251;61221;-81
2023/12/06 06:45:15;;;;;;;109.00;51.90;;;;;;;;;;106754;1253;59016;-81
2023/12/06 06:47:42;;;;;;;117.00;54.70;;;;;;;;;;106722;1251;60119;-80
2023/12/06 06:50:08;;;;;;;124.30;57.10;;;;;;;;;;106873;1253;59417;-80
2023/12/06 06:52:35;;;;;;;131.10;62.30;;;;;;;;;;106936;1255;59838;-81
2023/12/06 06:55:01;;;;;;;130.60;60.90;;;;;;;;;;107239;1252;60130;-80
2023/12/06 06:57:28;;;;;;;131.60;63.40;;;;;;;;;;107315;1251;60360;-80
2023/12/06 06:59:54;;;;;;;142.90;66.30;;;;;;;;;;107216;1253;59920;-80
2023/12/06 07:02:21;;;;;;;138.20;67.10;;;;;;;;;;107557;1251;58942;-80
2023/12/06 07:04:47;;;;;;;124.00;61.60;;;;;;;;;;107369;1251;58866;-80
2023/12/06 07:07:14;;;;;;;118.50;60.90;;;;;;;;;;107052;1253;59592;-81
2023/12/06 07:09:40;;;;;;;129.40;59.80;;;;;;;;;;107458;1253;59810;-80
2023/12/06 07:12:08;;;;;;;110.30;52.30;;;;;;;;;;107659;1251;59052;-80
2023/12/06 07:14:34;;;;;;;87.60;43.30;;;;;;;;;;108176;1252;60032;-81
2023/12/06 07:17:01;;;;;;;95.60;45.20;;;;;;;;;;106876;1252;59121;-80
2023/12/06 07:19:27;;;;;;;85.00;41.20;;;;;;;;;;106797;1252;60959;-81
2023/12/06 07:21:54;;;;;;;85.40;41.60;;;;;;;;;;106872;1251;59088;-80
2023/12/06 07:24:21;;;;;;;239.60;115.50;;;;;;;;;;106868;1251;60162;-80
2023/12/06 07:26:47;;;;;;;167.60;81.20;;;;;;;;;;106920;1255;60965;-80
2023/12/06 07:29:13;;;;;;;119.00;59.10;;;;;;;;;;106896;1251;59045;-81
2023/12/06 07:31:40;;;;;;;88.20;45.50;;;;;;;;;;106929;1252;59474;-80
2023/12/06 07:34:06;;;;;;;83.60;42.00;;;;;;;;;;107031;1251;59649;-81
2023/12/06 07:36:33;;;;;;;86.00;41.90;;;;;;;;;;107013;1253;60095;-80
2023/12/06 07:38:59;;;;;;;182.90;82.70;;;;;;;;;;106833;1251;59601;-81
2023/12/06 07:41:26;;;;;;;119.90;62.50;;;;;;;;;;107069;1252;58951;-80
2023/12/06 07:43:52;;;;;;;133.30;63.10;;;;;;;;;;107275;1251;58605;-81
2023/12/06 07:46:19;;;;;;;101.10;47.40;;;;;;;;;;107306;1253;59155;-81
2023/12/06 07:48:46;;;;;;;150.80;64.50;;;;;;;;;;107396;1253;58774;-81
2023/12/06 07:51:13;;;;;;;158.50;68.80;;;;;;;;;;107421;1252;59895;-80
2023/12/06 07:53:40;;;;;;;102.40;49.50;;;;;;;;;;107546;1252;60894;-81
2023/12/06 07:56:06;;;;;;;97.30;49.10;;;;;;;;;;108053;1255;59417;-80
2023/12/06 07:58:33;;;;;;;122.10;54.20;;;;;;;;;;107610;1253;59519;-79
2023/12/06 08:01:00;;;;;;;102.50;51.30;;;;;;;;;;107382;1251;59032;-79
2023/12/06 08:03:30;;;;;;;103.70;53.50;;;;;;;;;;107806;1251;58882;-79
2023/12/06 08:05:59;;;;;;;114.10;49.40;;;;;;;;;;107632;1253;62091;-79
2023/12/06 08:08:25;;;;;;;;;;;;;;;;;;107529;1251;59371;-79
2023/12/06 08:10:52;;;;;;;140.50;69.50;;;;;;;;;;107492;1253;58954;-80
2023/12/06 08:13:19;;;;;;;103.50;50.30;;;;;;;;;;107377;1251;58691;-79
2023/12/06 08:15:45;;;;;;;129.70;56.70;;;;;;;;;;107210;1256;58794;-79
2023/12/06 08:18:12;;;;;;;119.60;51.20;;;;;;;;;;107267;1253;58791;-79
2023/12/06 08:20:38;;;;;;;108.90;48.70;;;;;;;;;;107212;1253;58932;-79
2023/12/06 08:23:05;;;;;;;103.70;47.80;;;;;;;;;;107180;1253;58866;-79
2023/12/06 08:25:31;;;;;;;105.60;54.00;;;;;;;;;;107248;1254;58712;-80
2023/12/06 08:27:58;;;;;;;124.60;70.10;;;;;;;;;;107319;1253;58981;-79
2023/12/06 08:30:24;;;;;;;207.70;117.80;;;;;;;;;;107232;1251;58495;-79
2023/12/06 08:32:51;;;;;;;118.20;71.50;;;;;;;;;;107154;1251;58906;-80
2023/12/06 08:35:17;;;;;;;146.70;81.20;;;;;;;;;;107086;1251;59057;-79
2023/12/06 08:37:44;;;;;;;117.50;65.80;;;;;;;;;;107217;1251;60169;-80
2023/12/06 08:40:12;;;;;;;94.50;51.40;;;;;;;;;;107099;1253;60118;-79
2023/12/06 08:42:39;;;;;;;98.00;54.80;;;;;;;;;;109473;1251;60223;-79
2023/12/06 08:45:07;;;;;;;114.40;61.60;;;;;;;;;;109506;1251;58423;-80
2023/12/06 08:47:33;;;;;;;117.70;57.20;;;;;;;;;;109497;1256;58604;-80
2023/12/06 08:50:00;;;;;;;116.20;56.50;;;;;;;;;;109442;1251;58277;-79
2023/12/06 08:52:26;;;;;;;124.80;58.80;;;;;;;;;;109462;1251;58282;-80
2023/12/06 08:54:53;;;;;;;111.00;50.70;;;;;;;;;;109428;1251;58342;-79
2023/12/06 08:57:19;;;;;;;81.80;42.90;;;;;;;;;;109492;1251;59515;-79
2023/12/06 08:59:46;;;;;;;82.40;40.90;;;;;;;;;;109434;1251;58409;-80
2023/12/06 09:02:12;;;;;;;79.80;40.40;;;;;;;;;;109431;1252;58141;-79
2023/12/06 09:04:39;;;;;;;82.30;38.60;;;;;;;;;;109419;1251;58363;-80
2023/12/06 09:07:05;;;;;;;89.40;42.60;;;;;;;;;;107528;1250;58435;-80
2023/12/06 09:09:32;;;;;;;134.50;60.30;;;;;;;;;;107161;1251;60325;-80
2023/12/06 09:11:58;;;;;;;449.00;187.40;;;;;;;;;;107001;1254;60012;-80
2023/12/06 09:14:25;;;;;;;294.30;131.90;;;;;;;;;;107494;1252;59093;-81
2023/12/06 09:16:51;;;;;;;136.50;66.10;;;;;;;;;;107337;1253;58751;-80
2023/12/06 09:19:18;;;;;;;125.00;64.00;;;;;;;;;;107340;1251;59987;-80
2023/12/06 09:21:45;;;;;;;127.60;64.30;;;;;;;;;;107504;1253;59017;-80
2023/12/06 09:24:13;;;;;;;89.80;47.60;;;;;;;;;;109317;1252;58219;-80
2023/12/06 09:26:40;;;;;;;77.10;43.80;;;;;;;;;;109376;1253;58378;-80
2023/12/06 09:29:06;;;;;;;69.70;35.70;;;;;;;;;;109502;1252;58125;-80
2023/12/06 09:31:33;;;;;;;75.90;39.50;;;;;;;;;;109498;1252;59747;-80
2023/12/06 09:33:59;;;;;;;70.80;35.80;;;;;;;;;;109504;1251;58409;-80
2023/12/06 09:36:27;;;;;;;90.00;42.60;;;;;;;;;;109483;1251;59120;-81
2023/12/06 09:38:54;;;;;;;73.90;36.80;;;;;;;;;;108152;1253;60281;-80
2023/12/06 09:41:21;;;;;;;79.50;39.60;;;;;;;;;;106995;1252;60773;-80
2023/12/06 09:43:48;;;;;;;78.50;38.40;;;;;;;;;;107113;1255;61177;-80
2023/12/06 09:46:16;;;;;;;91.10;44.30;;;;;;;;;;106986;1252;60817;-80
2023/12/06 09:48:42;;;;;;;99.30;47.50;;;;;;;;;;107012;1251;60813;-80
2023/12/06 09:51:08;;;;;;;87.30;46.50;;;;;;;;;;106998;1253;59968;-80
2023/12/06 09:53:35;;;;;;;90.20;43.70;;;;;;;;;;106954;1253;58621;-80
2023/12/06 09:56:02;;;;;;;87.80;43.60;;;;;;;;;;107162;1255;58962;-80
2023/12/06 09:58:28;;;;;;;84.20;42.20;;;;;;;;;;107649;1251;58606;-80
2023/12/06 10:00:55;;;;;;;87.90;42.30;;;;;;;;;;107632;1252;58384;-80
2023/12/06 10:03:21;;;;;;;86.50;45.70;;;;;;;;;;107071;1251;58932;-80
2023/12/06 10:05:55;;;;;;;81.30;39.10;;;;;;;;;;107027;1251;59929;-80
2023/12/06 10:08:22;;;;;;;94.00;44.40;;;;;;;;;;107062;1251;61414;-81
2023/12/06 10:10:48;;;;;;;84.40;41.00;;;;;;;;;;107126;1253;59963;-80
2023/12/06 10:13:15;;;;;;;88.60;43.60;;;;;;;;;;107071;1256;59881;-80
2023/12/06 10:15:42;;;;;;;85.80;43.10;;;;;;;;;;106994;1255;58948;-80
2023/12/06 10:18:10;;;;;;;89.60;45.30;;;;;;;;;;107083;1252;59545;-80
2023/12/06 10:20:36;;;;;;;88.80;45.90;;;;;;;;;;109481;1251;59598;-80
2023/12/06 10:23:03;;;;;;;103.50;46.70;;;;;;;;;;108747;1251;59007;-80
2023/12/06 10:25:39;;;;;;;104.40;45.60;;;;;;;;;;109471;1251;59520;-80
2023/12/06 10:28:07;;;;;;;91.10;46.90;;;;;;;;;;109442;1253;58395;-80
2023/12/06 10:30:34;;;;;;;92.30;43.10;;;;;;;;;;108773;1252;58965;-79
2023/12/06 10:33:02;;;;;;;86.50;42.90;;;;;;;;;;107134;1253;60767;-79
2023/12/06 10:35:28;;;;;;;80.10;38.40;;;;;;;;;;107014;1254;60069;-79
2023/12/06 10:37:55;;;;;;;77.50;38.90;;;;;;;;;;107007;1254;58757;-79
2023/12/06 10:40:23;;;;;;;81.20;39.80;;;;;;;;;;107076;1252;58490;-79
2023/12/06 10:42:51;;;;;;;82.40;40.70;;;;;;;;;;107026;1253;58379;-79
2023/12/06 10:45:17;;;;;;;82.00;38.00;;;;;;;;;;106944;1255;61739;-79
2023/12/06 10:47:44;;;;;;;77.20;37.80;;;;;;;;;;107055;1256;60050;-79
2023/12/06 10:50:11;;;;;;;74.10;37.70;;;;;;;;;;106971;1251;61131;-79
2023/12/06 10:52:37;;;;;;;77.60;37.60;;;;;;;;;;107045;1255;59001;-79
2023/12/06 10:55:04;;;;;;;76.50;39.40;;;;;;;;;;107012;1253;59040;-79
2023/12/06 10:57:32;;;;;;;69.60;37.30;;;;;;;;;;109505;1251;61118;-79
2023/12/06 10:59:58;;;;;;;70.50;35.40;;;;;;;;;;109450;1252;58260;-80
2023/12/06 11:02:25;;;;;;;70.00;37.90;;;;;;;;;;109464;1255;58271;-79
2023/12/06 11:04:52;;;;;;;74.40;39.00;;;;;;;;;;107840;1251;61170;-79
2023/12/06 11:07:32;;;;;;;70.50;38.40;;;;;;;;;;107211;1253;58955;-80
2023/12/06 11:10:05;;;;;;;114.10;50.30;;;;;;;;;;107076;1253;60978;-79
2023/12/06 11:12:38;;;;;;;483.30;194.70;;;;;;;;;;107175;1252;60485;-79
2023/12/06 11:15:18;;;;;;;299.70;129.90;;;;;;;;;;107057;1256;60491;-79
2023/12/06 11:17:54;;;;;;;232.60;101.10;;;;;;;;;;109413;1255;58466;-80
2023/12/06 11:20:20;;;;;;;159.70;78.30;;;;;;;;;;109479;1252;58399;-80
2023/12/06 11:22:47;;;;;;;98.80;58.40;;;;;;;;;;109474;1251;59583;-79
2023/12/06 11:25:14;;;;;;;87.10;50.50;;;;;;;;;;108993;1253;59014;-79
2023/12/06 11:27:41;;;;;;;87.90;47.70;;;;;;;;;;107079;1252;59146;-79
2023/12/06 11:30:17;;;;;;;78.00;39.50;;;;;;;;;;106991;1253;58908;-80
2023/12/06 11:32:43;;;;;;;85.10;44.30;;;;;;;;;;107055;1255;60032;-80
2023/12/06 11:35:10;;;;;;;183.80;82.40;;;;;;;;;;107150;1255;62101;-80
2023/12/06 11:37:36;;;;;;;114.60;57.90;;;;;;;;;;107169;1251;59228;-79
2023/12/06 11:40:18;;;;;;;87.30;42.90;;;;;;;;;;107165;1255;60736;-79
2023/12/06 11:42:53;;;;;;;77.10;41.00;;;;;;;;;;107208;1251;60272;-80
2023/12/06 11:45:30;;;;;;;76.30;37.80;;;;;;;;;;107204;1256;59071;-79
2023/12/06 11:48:00;;;;;;;76.30;40.00;;;;;;;;;;107205;1255;60802;-79
2023/12/06 11:50:27;;;;;;;74.70;40.50;;;;;;;;;;107086;1253;59902;-79
2023/12/06 11:52:54;;;;;;;81.10;41.60;;;;;;;;;;107153;1251;59608;-79
2023/12/06 11:55:21;;;;;;;75.00;40.40;;;;;;;;;;109059;1251;58297;-80
2023/12/06 11:58:00;;;;;;;67.70;37.10;;;;;;;;;;109509;1251;58458;-80
2023/12/06 12:00:30;;;;;;;79.30;40.60;;;;;;;;;;109529;1251;61154;-80
2023/12/06 12:03:01;;;;;;;72.00;38.90;;;;;;;;;;109505;1255;58474;-80
2023/12/06 12:05:27;;;;;;;72.00;37.80;;;;;;;;;;109447;1252;58334;-80
2023/12/06 12:07:54;;;;;;;73.90;43.90;;;;;;;;;;109439;1251;58528;-80
2023/12/06 12:10:20;;;;;;;74.10;41.70;;;;;;;;;;109507;1255;58010;-80
2023/12/06 12:12:49;;;;;;;71.80;37.50;;;;;;;;;;109533;1251;58407;-80
2023/12/06 12:15:17;;;;;;;;;;;;;;;;;;109814;1251;59505;-80
2023/12/06 12:17:44;;;;;;;81.90;42.00;;;;;;;;;;109512;1256;60367;-81
2023/12/06 12:20:13;;;;;;;98.10;48.10;;;;;;;;;;109570;1251;57990;-81
2023/12/06 12:22:46;;;;;;;109.40;53.80;;;;;;;;;;109615;1251;58132;-80
2023/12/06 12:25:12;;;;;;;107.60;56.60;;;;;;;;;;109592;1251;60008;-80
2023/12/06 12:27:39;;;;;;;105.90;60.30;;;;;;;;;;109598;1251;58514;-80
2023/12/06 12:30:07;;;;;;;101.40;53.30;;;;;;;;;;107739;1254;60665;-80
2023/12/06 12:32:34;;;;;;;89.50;51.30;;;;;;;;;;107725;1256;59108;-80
2023/12/06 12:35:00;;;;;;;104.80;59.00;;;;;;;;;;107141;1251;59054;-79
2023/12/06 12:37:27;;;;;;;90.60;51.70;;;;;;;;;;107157;1255;62055;-80
2023/12/06 12:39:53;;;;;;;90.20;50.90;;;;;;;;;;108761;1251;60944;-80
2023/12/06 12:42:20;;;;;;;89.80;51.90;;;;;;;;;;109469;1251;58316;-80
2023/12/06 12:44:47;;;;;;;102.40;55.80;;;;;;;;;;109441;1254;58213;-80
2023/12/06 12:47:13;;;;;;;98.90;58.70;;;;;;;;;;109488;1251;58701;-80
2023/12/06 12:49:40;;;;;;;104.70;58.20;;;;;;;;;;107792;1254;61750;-80
2023/12/06 12:52:07;;;;;;;113.10;62.00;;;;;;;;;;107061;1251;59741;-80
2023/12/06 12:54:36;;;;;;;109.80;60.60;;;;;;;;;;106935;1251;60191;-80
2023/12/06 12:57:03;;;;;;;115.80;60.50;;;;;;;;;;107083;1252;58678;-80
2023/12/06 12:59:33;;;;;;;123.70;64.10;;;;;;;;;;107158;1251;59089;-80
2023/12/06 13:01:59;;;;;;;122.50;67.00;;;;;;;;;;107123;1256;61731;-79
2023/12/06 13:04:26;;;;;;;137.50;69.80;;;;;;;;;;107148;1251;60118;-80
2023/12/06 13:06:53;;;;;;;136.00;73.90;;;;;;;;;;107269;1256;61080;-80
2023/12/06 13:09:20;;;;;;;155.00;81.40;;;;;;;;;;107291;1254;60106;-80
2023/12/06 13:11:46;;;;;;;148.20;74.00;;;;;;;;;;107114;1253;59041;-81
2023/12/06 13:14:15;;;;;;;137.30;70.00;;;;;;;;;;107262;1251;62149;-81
2023/12/06 13:16:42;;;;;;;132.30;70.90;;;;;;;;;;107286;1251;59034;-80
2023/12/06 13:19:08;;;;;;;137.50;71.70;;;;;;;;;;107191;1255;60054;-81
2023/12/06 13:21:35;;;;;;;140.70;71.40;;;;;;;;;;107121;1251;58965;-80
2023/12/06 13:24:01;;;;;;;135.60;70.60;;;;;;;;;;107130;1251;59103;-79
2023/12/06 13:26:28;;;;;;;167.20;81.90;;;;;;;;;;107047;1251;59028;-79
2023/12/06 13:28:54;;;;;;;181.50;94.50;;;;;;;;;;107098;1251;60092;-79
2023/12/06 13:31:21;;;;;;;193.10;92.80;;;;;;;;;;107134;1251;59907;-80
2023/12/06 13:33:47;;;;;;;188.40;97.90;;;;;;;;;;107018;1251;58937;-79
2023/12/06 13:36:14;;;;;;;213.20;105.00;;;;;;;;;;107090;1251;58641;-80
2023/12/06 13:38:40;;;;;;;230.00;106.10;;;;;;;;;;107173;1254;58999;-79
2023/12/06 13:41:07;;;;;;;226.20;112.10;;;;;;;;;;107107;1255;59007;-79
2023/12/06 13:43:33;;;;;;;205.20;102.60;;;;;;;;;;107116;1251;58369;-79
2023/12/06 13:46:00;;;;;;;216.20;105.50;;;;;;;;;;107726;1251;59007;-79
2023/12/06 13:48:26;;;;;;;279.80;133.20;;;;;;;;;;107216;1256;58996;-79
2023/12/06 13:50:53;;;;;;;255.50;131.80;;;;;;;;;;107168;1256;58948;-79
2023/12/06 13:53:20;;;;;;;279.20;147.10;;;;;;;;;;107086;1251;60017;-80
2023/12/06 13:55:46;;;;;;;255.30;135.50;;;;;;;;;;106986;1254;59547;-79